Time;durP1;ratioP1;P1;durP2;ratioP2;P2;SDS_P1;SDS_P2;PMS_P1;PMS_P2;Temp;Humidity;BMP_temperature;BMP_pressure;BME280_temperature;BME280_humidity;BME280_pressure;Samples;Min_cycle;Max_cycle;Signal;HPM_P1;HPM_P2
2022/11/06 00:01:35;;;;;;;10.10;5.40;;;;;;;9.21;73.00;99241.71;102126;1301;76166;-24
2022/11/06 00:04:03;;;;;;;10.70;5.60;;;;;;;9.51;72.28;99247.53;102262;1298;76776;-24
2022/11/06 00:06:47;;;;;;;8.10;4.60;;;;;;;9.44;72.13;99240.57;102244;1298;75261;-24
2022/11/06 00:09:18;;;;;;;6.40;4.00;;;;;;;9.23;72.88;99240.88;102016;1299;61681;-24
2022/11/06 00:11:46;;;;;;;5.10;4.00;;;;;;;9.01;73.70;99236.42;102006;1303;62184;-24
2022/11/06 00:14:14;;;;;;;5.90;4.40;;;;;;;8.98;74.48;99236.45;102031;1294;76304;-26
2022/11/06 00:16:42;;;;;;;8.20;4.70;;;;;;;9.34;73.27;99237.18;102175;1296;75649;-27
2022/11/06 00:19:10;;;;;;;11.80;4.40;;;;;;;9.38;72.68;99239.13;102018;1301;73597;-25
2022/11/06 00:21:37;;;;;;;6.70;3.70;;;;;;;9.25;72.85;99239.57;102151;1302;61906;-25
2022/11/06 00:24:07;;;;;;;6.00;4.00;;;;;;;9.04;73.49;99237.59;102187;1294;62743;-25
2022/11/06 00:26:35;;;;;;;11.90;3.20;;;;;;;8.83;74.64;99239.59;102268;1297;76331;-28
2022/11/06 00:29:04;;;;;;;6.60;3.00;;;;;;;9.03;74.47;99234.35;102281;1302;76760;-26
2022/11/06 00:31:34;;;;;;;5.90;4.10;;;;;;;9.30;73.25;99229.70;101963;1302;75175;-24
2022/11/06 00:34:02;;;;;;;7.00;4.30;;;;;;;9.26;73.71;99233.75;101937;1301;62678;-24
2022/11/06 00:36:30;;;;;;;7.50;3.50;;;;;;;9.02;74.80;99228.73;102059;1296;62567;-24
2022/11/06 00:38:58;;;;;;;5.70;4.10;;;;;;;8.77;75.32;99232.20;102308;1292;76158;-24
2022/11/06 00:41:26;;;;;;;7.10;4.20;;;;;;;8.78;76.76;99233.85;101893;1299;75786;-24
2022/11/06 00:44:00;;;;;;;6.70;3.60;;;;;;;9.04;75.72;99231.70;102122;1300;75312;-24
2022/11/06 00:46:28;;;;;;;4.70;3.40;;;;;;;9.01;75.72;99234.11;101958;1302;62901;-24
2022/11/06 00:48:58;;;;;;;8.30;4.20;;;;;;;8.80;76.69;99235.48;102278;1298;61604;-24
2022/11/06 00:51:28;;;;;;;5.30;3.30;;;;;;;8.55;77.45;99236.20;102140;1299;74556;-24
2022/11/06 00:53:57;;;;;;;7.60;3.80;;;;;;;8.56;78.13;99235.27;102018;1297;76731;-24
2022/11/06 00:56:25;;;;;;;5.10;3.30;;;;;;;8.85;77.25;99235.33;101946;1300;75328;-24
2022/11/06 00:58:53;;;;;;;4.90;3.20;;;;;;;8.84;76.93;99228.80;101929;1299;61892;-24
2022/11/06 01:01:22;;;;;;;7.70;4.30;;;;;;;8.64;77.36;99237.27;101970;1299;62326;-24
2022/11/06 01:03:53;;;;;;;6.20;4.30;;;;;;;8.41;78.34;99235.17;101905;1304;76378;-24
2022/11/06 01:06:23;;;;;;;6.70;3.20;;;;;;;8.40;79.13;99232.35;101993;1294;76827;-24
2022/11/06 01:08:51;;;;;;;8.40;4.50;;;;;;;8.72;77.98;99229.61;101983;1301;75247;-24
2022/11/06 01:11:30;;;;;;;6.90;4.40;;;;;;;8.74;77.96;99234.89;101970;1304;62833;-24
2022/11/06 01:14:18;;;;;;;8.60;4.20;;;;;;;8.46;78.55;99232.45;102073;1302;62560;-24
2022/11/06 01:16:47;;;;;;;5.20;3.60;;;;;;;8.24;79.37;99230.15;102160;1300;76186;-24
2022/11/06 01:19:15;;;;;;;5.60;3.60;;;;;;;8.44;79.02;99230.38;102311;1302;76769;-24
2022/11/06 01:21:45;;;;;;;8.60;4.10;;;;;;;8.62;77.95;99229.31;102060;1299;73091;-24
2022/11/06 01:24:15;;;;;;;11.70;4.60;;;;;;;8.52;78.09;99230.50;101875;1304;63004;-24
2022/11/06 01:26:43;;;;;;;5.60;3.50;;;;;;;8.31;78.94;99227.77;101942;1301;62758;-24
2022/11/06 01:29:31;;;;;;;5.70;3.60;;;;;;;8.34;79.25;99231.70;102272;1295;75243;-24
2022/11/06 01:31:58;;;;;;;6.80;4.20;;;;;;;8.64;77.94;99229.53;102028;1294;76442;-24
2022/11/06 01:34:26;;;;;;;8.20;3.80;;;;;;;8.64;77.50;99232.64;102236;1302;75155;-24
2022/11/06 01:36:53;;;;;;;7.40;4.70;;;;;;;8.42;77.95;99230.64;102191;1296;61962;-24
2022/11/06 01:39:21;;;;;;;6.50;3.50;;;;;;;8.18;78.93;99227.98;102132;1295;61703;-24
2022/11/06 01:41:50;;;;;;;8.60;4.60;;;;;;;8.35;78.88;99233.88;102259;1301;75402;-24
2022/11/06 01:44:39;;;;;;;6.90;3.90;;;;;;;8.55;78.10;99235.14;101975;1299;76476;-24
2022/11/06 01:47:33;;;;;;;6.00;3.40;;;;;;;8.40;78.36;99235.95;102230;1298;75135;-24
2022/11/06 01:50:04;;;;;;;5.70;2.60;;;;;;;8.14;79.31;99241.87;102146;1292;61407;-24
2022/11/06 01:52:32;;;;;;;4.90;3.10;;;;;;;8.30;79.46;99244.93;101940;1301;61593;-24
2022/11/06 01:55:07;;;;;;;7.90;4.20;;;;;;;8.62;78.41;99244.88;102004;1298;76346;-24
2022/11/06 01:57:35;;;;;;;4.00;3.40;;;;;;;8.54;78.09;99248.52;101958;1296;76845;-24
2022/11/06 02:00:04;;;;;;;6.20;3.80;;;;;;;8.35;78.61;99244.94;102133;1302;73839;-24
2022/11/06 02:02:31;;;;;;;6.00;3.00;;;;;;;8.15;79.39;99248.41;102025;1302;61926;-24
2022/11/06 02:04:59;;;;;;;7.50;4.00;;;;;;;8.32;79.35;99245.49;101981;1294;62738;-24
2022/11/06 02:07:27;;;;;;;7.30;3.80;;;;;;;8.58;78.20;99247.43;102273;1301;76237;-24
2022/11/06 02:09:54;;;;;;;4.60;3.00;;;;;;;8.51;77.92;99245.42;102101;1299;76692;-24
2022/11/06 02:13:02;;;;;;;6.00;3.40;;;;;;;8.34;78.41;99251.46;101942;1292;75139;-24
2022/11/06 02:15:46;;;;;;;5.40;3.80;;;;;;;8.16;79.36;99248.30;102248;1302;63388;-24
2022/11/06 02:18:24;;;;;;;6.80;4.00;;;;;;;8.60;78.57;99253.46;102042;1298;61673;-24
2022/11/06 02:21:19;;;;;;;9.80;3.70;;;;;;;8.67;77.86;99256.80;101968;1297;75786;-24
2022/11/06 02:24:23;;;;;;;4.50;3.10;;;;;;;8.48;78.00;99255.48;102035;1302;76797;-24
2022/11/06 02:27:06;;;;;;;3.40;2.50;;;;;;;8.17;78.96;99257.41;102001;1300;75216;-24
2022/11/06 02:29:53;;;;;;;5.70;3.20;;;;;;;8.35;79.24;99255.33;101958;1299;62913;-24
2022/11/06 02:33:12;;;;;;;5.70;3.30;;;;;;;8.62;77.83;99256.14;101961;1299;61751;-24
2022/11/06 02:36:05;;;;;;;6.60;3.80;;;;;;;8.50;78.37;99255.01;101472;1306;75316;-24
2022/11/06 02:38:44;;;;;;;3.90;2.80;;;;;;;8.20;79.28;99254.61;101305;1310;75779;-24
2022/11/06 02:41:18;;;;;;;6.00;3.50;;;;;;;8.24;80.02;99257.95;101281;1308;75299;-24
2022/11/06 02:43:48;;;;;;;5.20;3.30;;;;;;;8.55;78.91;99259.00;101312;1307;61493;-24
2022/11/06 02:46:19;;;;;;;6.80;4.50;;;;;;;8.53;78.64;99260.39;101458;1306;62902;-24
2022/11/06 02:48:49;;;;;;;8.40;4.00;;;;;;;8.33;79.05;99261.73;101240;1310;75323;-24
2022/11/06 02:51:20;;;;;;;4.70;3.10;;;;;;;8.09;80.23;99260.02;101350;1310;76913;-24
2022/11/06 02:53:48;;;;;;;4.40;3.10;;;;;;;8.30;79.98;99257.59;101340;1286;75054;-24
2022/11/06 02:56:19;;;;;;;8.80;3.90;;;;;;;8.50;79.14;99257.80;101388;1309;62898;-24
2022/11/06 02:58:50;;;;;;;5.90;3.40;;;;;;;8.37;79.28;99256.73;101442;1310;62590;-24
2022/11/06 03:01:26;;;;;;;9.90;3.80;;;;;;;8.17;79.89;99259.00;101259;1304;76110;-24
2022/11/06 03:03:56;;;;;;;3.80;2.80;;;;;;;8.07;80.90;99263.79;101054;1313;76720;-24
2022/11/06 03:06:42;;;;;;;6.00;3.60;;;;;;;8.38;79.86;99262.42;101281;1309;75212;-24
2022/11/06 03:09:21;;;;;;;4.30;3.50;;;;;;;8.35;79.72;99263.47;101473;1309;62630;-23
2022/11/06 03:11:53;;;;;;;7.50;3.80;;;;;;;8.15;80.10;99261.88;101992;1299;61243;-24
2022/11/06 03:14:28;;;;;;;8.10;4.00;;;;;;;7.95;81.13;99265.97;101924;1299;76162;-24
2022/11/06 03:17:00;;;;;;;8.80;3.70;;;;;;;8.27;80.69;99267.31;101957;1302;76643;-24
2022/11/06 03:19:46;;;;;;;6.10;3.80;;;;;;;8.42;79.78;99268.02;101946;1299;73547;-24
2022/11/06 03:22:26;;;;;;;4.80;3.10;;;;;;;8.26;79.95;99268.36;102022;1294;61849;-24
2022/11/06 03:25:09;;;;;;;7.20;3.60;;;;;;;8.02;80.82;99271.90;102054;1302;62816;-25
2022/11/06 03:28:07;;;;;;;5.30;3.80;;;;;;;8.19;80.89;99278.23;102290;1292;76366;-27
2022/11/06 03:30:44;;;;;;;7.10;3.50;;;;;;;8.37;79.85;99275.94;102035;1287;72694;-25
2022/11/06 03:33:18;;;;;;;5.50;3.60;;;;;;;8.24;80.19;99279.25;102046;1302;75426;-27
2022/11/06 03:36:17;;;;;;;6.20;2.70;;;;;;;8.02;80.86;99272.42;102128;1301;62673;-25
2022/11/06 03:38:48;;;;;;;4.80;3.00;;;;;;;8.17;81.08;99274.05;102179;1299;61867;-26
2022/11/06 03:41:20;;;;;;;5.80;4.20;;;;;;;8.42;79.86;99274.40;102008;1299;76209;-23
2022/11/06 03:43:48;;;;;;;7.80;4.30;;;;;;;8.28;79.85;99267.25;101319;1295;74667;-23
2022/11/06 03:46:18;;;;;;;7.50;3.70;;;;;;;8.05;80.63;99262.88;102029;1294;73935;-23
2022/11/06 03:48:54;;;;;;;4.40;3.00;;;;;;;7.97;81.51;99266.02;102193;1302;63657;-23
2022/11/06 03:51:33;;;;;;;5.60;2.80;;;;;;;8.34;80.23;99264.92;102094;1298;61146;-23
2022/11/06 03:54:12;;;;;;;7.50;4.20;;;;;;;8.37;79.46;99265.44;102069;1299;76314;-23
2022/11/06 03:56:42;;;;;;;3.50;2.80;;;;;;;8.15;79.90;99263.44;102002;1299;76646;-23
2022/11/06 03:59:13;;;;;;;4.30;3.60;;;;;;;7.90;80.66;99257.84;102092;1302;74084;-23
2022/11/06 04:01:43;;;;;;;6.10;4.00;;;;;;;8.03;81.08;99258.20;102143;1301;62122;-23
2022/11/06 04:04:14;;;;;;;5.90;4.30;;;;;;;8.28;79.98;99257.05;102205;1291;62781;-23
2022/11/06 04:06:43;;;;;;;5.80;3.40;;;;;;;8.20;79.73;99254.95;102058;1299;76383;-23
2022/11/06 04:14:47;;;;;;;4.90;3.70;;;;;;;8.37;79.69;99271.63;102156;1301;61921;-23
2022/11/06 04:17:15;;;;;;;6.00;3.50;;;;;;;8.43;79.13;99275.38;102085;1303;63002;-23
2022/11/06 04:19:46;;;;;;;7.90;4.10;;;;;;;8.25;79.55;99274.70;102155;1302;75381;-23
2022/11/06 04:22:36;;;;;;;5.00;2.40;;;;;;;7.97;80.17;99276.55;102091;1300;74830;-23
2022/11/06 04:28:48;;;;;;;7.50;3.70;;;;;;;8.37;79.51;99276.63;102331;1300;62664;-25
2022/11/06 04:31:35;;;;;;;4.00;3.10;;;;;;;8.16;79.92;99278.56;101948;1298;61865;-27
2022/11/06 04:34:12;;;;;;;3.80;2.90;;;;;;;7.90;80.73;99276.36;102152;1294;76395;-25
2022/11/06 04:36:47;;;;;;;5.70;4.10;;;;;;;7.96;81.45;99274.70;101959;1299;75821;-28
2022/11/06 04:39:23;;;;;;;4.50;3.40;;;;;;;8.26;80.21;99275.34;102264;1294;75042;-24
2022/11/06 04:42:03;;;;;;;5.90;4.40;;;;;;;8.16;80.09;99280.31;102120;1296;61846;-26
2022/11/06 04:44:33;;;;;;;6.10;3.80;;;;;;;7.94;80.70;99278.34;101963;1300;61515;-23
2022/11/06 04:47:03;;;;;;;4.00;2.60;;;;;;;7.78;81.62;99280.45;102047;1298;76396;-22
2022/11/06 04:49:32;;;;;;;7.40;3.20;;;;;;;8.12;81.07;99281.07;101987;1296;76807;-23
2022/11/06 04:52:01;;;;;;;4.40;3.10;;;;;;;8.27;80.11;99284.10;101980;1297;73980;-22
2022/11/06 04:54:29;;;;;;;7.10;4.30;;;;;;;8.11;80.37;99283.23;101913;1304;62923;-22
2022/11/06 04:56:59;;;;;;;5.90;4.00;;;;;;;7.81;81.26;99285.05;102099;1301;61874;-22
2022/11/06 04:59:26;;;;;;;4.70;2.60;;;;;;;7.87;81.91;99288.64;102073;1297;75731;-22
2022/11/06 05:01:54;;;;;;;5.30;3.70;;;;;;;8.08;81.07;99295.41;102278;1294;76964;-22
2022/11/06 05:04:21;;;;;;;9.50;3.70;;;;;;;7.99;80.95;99295.61;102323;1295;74072;-22
2022/11/06 05:09:05;;;;;;;4.90;3.70;;;;;;;7.70;82.23;99296.30;99260;1329;600509;-23
2022/11/06 05:11:32;;;;;;;8.50;4.50;;;;;;;8.00;81.13;99298.35;101180;1307;63073;-23
2022/11/06 05:14:00;;;;;;;4.70;3.30;;;;;;;8.08;80.43;99299.56;101304;1312;62576;-24
2022/11/06 05:16:27;;;;;;;6.00;3.80;;;;;;;7.90;81.23;99304.69;101266;1314;73441;-23
2022/11/06 05:18:55;;;;;;;3.70;2.90;;;;;;;7.66;82.08;99304.17;101227;1313;76119;-23
2022/11/06 05:24:09;;;;;;;5.40;3.10;;;;;;;8.14;80.76;99312.42;100661;1311;61254;-23
2022/11/06 05:26:37;;;;;;;3.40;2.90;;;;;;;8.05;80.67;99312.20;101674;1303;61488;-24
2022/11/06 05:29:04;;;;;;;4.60;3.00;;;;;;;7.80;81.58;99308.80;101354;1310;74791;-24
2022/11/06 05:31:32;;;;;;;4.90;3.00;;;;;;;7.72;82.31;99307.42;101290;1305;75871;-23
2022/11/06 05:33:59;;;;;;;5.30;3.00;;;;;;;8.00;81.27;99308.39;101379;1311;74319;-23
2022/11/06 05:36:27;;;;;;;7.90;4.10;;;;;;;8.02;80.82;99306.67;101347;1305;61579;-24
2022/11/06 05:38:54;;;;;;;6.10;3.80;;;;;;;7.83;81.24;99301.16;101354;1304;62293;-24
2022/11/06 05:41:22;;;;;;;7.90;3.70;;;;;;;7.64;82.18;99308.80;101305;1311;74622;-24
2022/11/06 05:43:49;;;;;;;5.50;3.50;;;;;;;7.89;81.56;99309.59;101303;1308;76816;-24
2022/11/06 05:46:17;;;;;;;4.60;3.60;;;;;;;8.02;80.43;99312.90;101366;1311;75161;-24
2022/11/06 05:49:04;;;;;;;6.40;3.90;;;;;;;7.91;80.82;99321.27;101342;1304;61625;-24
2022/11/06 05:51:32;;;;;;;4.90;3.40;;;;;;;7.68;81.43;99323.56;101266;1310;61424;-24
2022/11/06 05:53:59;;;;;;;4.60;3.10;;;;;;;7.82;81.32;99325.75;101254;1311;74683;-24
2022/11/06 05:56:27;;;;;;;3.80;3.40;;;;;;;7.99;80.56;99326.91;101262;1304;76901;-24
2022/11/06 05:58:54;;;;;;;8.50;4.00;;;;;;;7.87;80.46;99331.68;101961;1305;74139;-24
2022/11/06 06:01:22;;;;;;;4.00;3.20;;;;;;;7.63;80.72;99334.61;101939;1305;62451;-22
2022/11/06 06:03:49;;;;;;;7.10;3.90;;;;;;;7.73;81.43;99344.64;101988;1302;62820;-22
2022/11/06 06:06:17;;;;;;;7.20;3.80;;;;;;;8.02;80.13;99341.75;101948;1305;74531;-22
2022/11/06 06:08:44;;;;;;;5.50;3.60;;;;;;;8.00;79.98;99348.14;101869;1302;76509;-22
2022/11/06 06:11:12;;;;;;;4.00;3.20;;;;;;;7.80;80.52;99351.64;101984;1305;75057;-22
2022/11/06 06:13:39;;;;;;;5.00;3.10;;;;;;;7.60;81.22;99348.81;101945;1297;63424;-22
2022/11/06 06:16:07;;;;;;;4.90;2.80;;;;;;;7.90;80.61;99352.25;101992;1302;63114;-22
2022/11/06 06:18:34;;;;;;;5.50;3.80;;;;;;;7.96;79.85;99349.58;101954;1301;75464;-22
2022/11/06 06:21:02;;;;;;;5.40;3.30;;;;;;;7.82;79.94;99358.81;101927;1300;76654;-22
2022/11/06 06:23:29;;;;;;;3.70;3.00;;;;;;;7.62;80.80;99355.75;101960;1301;72750;-22
2022/11/06 06:25:57;;;;;;;4.90;3.40;;;;;;;7.82;80.53;99351.86;101968;1296;61837;-22
2022/11/06 06:28:24;;;;;;;5.50;3.20;;;;;;;8.04;79.05;99358.05;101987;1305;62724;-22
2022/11/06 06:30:52;;;;;;;6.20;3.60;;;;;;;8.02;79.50;99363.52;101919;1302;74335;-22
2022/11/06 06:33:27;;;;;;;6.40;3.80;;;;;;;7.79;79.99;99364.88;101934;1298;76545;-22
2022/11/06 06:35:54;;;;;;;4.70;3.00;;;;;;;7.67;80.38;99360.48;101964;1304;75314;-22
2022/11/06 06:38:22;;;;;;;5.80;3.00;;;;;;;7.96;79.63;99362.20;101918;1295;62116;-22
2022/11/06 06:40:50;;;;;;;4.20;3.30;;;;;;;8.03;79.45;99365.88;102016;1304;62755;-22
2022/11/06 06:43:17;;;;;;;8.20;3.90;;;;;;;7.82;79.95;99362.80;101956;1304;75698;-22
2022/11/06 06:45:45;;;;;;;4.60;2.70;;;;;;;7.63;80.95;99370.56;101901;1301;75831;-22
2022/11/06 06:48:12;;;;;;;4.80;3.40;;;;;;;7.87;80.48;99374.52;101926;1296;75683;-22
2022/11/06 06:50:41;;;;;;;4.90;3.30;;;;;;;8.00;79.75;99371.77;101926;1305;63025;-22
2022/11/06 06:53:08;;;;;;;4.50;3.20;;;;;;;7.89;80.00;99374.11;101936;1305;62688;-22
2022/11/06 06:55:36;;;;;;;5.50;2.90;;;;;;;7.70;80.52;99378.77;101971;1305;75398;-22
2022/11/06 06:58:03;;;;;;;4.10;3.20;;;;;;;7.81;80.77;99374.98;101985;1294;76602;-22
2022/11/06 07:00:32;;;;;;;9.40;4.20;;;;;;;8.04;79.86;99383.15;101944;1300;74191;-21
2022/11/06 07:03:00;;;;;;;3.70;3.20;;;;;;;7.97;79.94;99393.45;101873;1303;61609;-22
2022/11/06 07:05:28;;;;;;;4.00;2.60;;;;;;;7.73;80.92;99398.77;101805;1308;62852;-21
2022/11/06 07:07:55;;;;;;;6.20;4.20;;;;;;;7.70;81.62;99400.32;101968;1305;75815;-22
2022/11/06 07:10:23;;;;;;;6.50;2.70;;;;;;;8.04;80.16;99397.67;101967;1296;75752;-21
2022/11/06 07:12:52;;;;;;;7.70;3.90;;;;;;;8.05;79.70;99402.27;101944;1300;74154;-21
2022/11/06 07:15:19;;;;;;;4.50;3.00;;;;;;;7.86;80.44;99402.09;101920;1303;62582;-22
2022/11/06 07:17:47;;;;;;;4.20;2.70;;;;;;;7.65;81.45;99406.75;101936;1297;61920;-21
2022/11/06 07:20:14;;;;;;;6.50;3.90;;;;;;;7.84;81.55;99402.40;101961;1304;74398;-21
2022/11/06 07:22:42;;;;;;;3.90;3.10;;;;;;;7.95;80.55;99399.45;101938;1297;76694;-21
2022/11/06 07:25:09;;;;;;;4.90;2.80;;;;;;;7.82;81.03;99398.02;101947;1305;75082;-21
2022/11/06 07:27:37;;;;;;;6.80;2.60;;;;;;;7.60;81.84;99399.23;101966;1301;61231;-21
2022/11/06 07:30:05;;;;;;;5.30;2.70;;;;;;;7.77;82.12;99402.52;101960;1301;61497;-21
2022/11/06 07:32:33;;;;;;;4.20;3.30;;;;;;;7.96;81.05;99402.84;101858;1298;73516;-21
2022/11/06 07:35:00;;;;;;;3.70;2.10;;;;;;;7.88;81.22;99407.67;101969;1302;76863;-21
2022/11/06 07:37:28;;;;;;;4.80;3.00;;;;;;;7.70;81.79;99411.05;101910;1305;75136;-21
2022/11/06 07:39:55;;;;;;;5.30;2.70;;;;;;;7.74;82.42;99413.23;101955;1304;64473;-21
2022/11/06 07:42:23;;;;;;;4.70;3.30;;;;;;;8.16;80.93;99409.86;101981;1297;62620;-21
2022/11/06 07:45:01;;;;;;;4.20;2.80;;;;;;;8.19;80.41;99409.85;101943;1296;75520;-21
2022/11/06 07:47:29;;;;;;;4.10;2.90;;;;;;;8.02;80.59;99410.39;101964;1302;76892;-21
2022/11/06 07:49:57;;;;;;;2.40;1.90;;;;;;;7.80;81.59;99409.04;102000;1305;75301;-21
2022/11/06 07:52:24;;;;;;;3.50;2.70;;;;;;;7.91;81.59;99412.17;101938;1302;61196;-24
2022/11/06 07:54:52;;;;;;;2.90;2.10;;;;;;;8.23;80.59;99413.91;101948;1302;61944;-24
2022/11/06 07:57:19;;;;;;;5.10;2.90;;;;;;;8.21;80.42;99413.17;101925;1305;73357;-25
2022/11/06 07:59:47;;;;;;;3.00;2.60;;;;;;;8.01;81.11;99410.31;101956;1305;76768;-25
2022/11/06 08:02:16;;;;;;;2.30;1.90;;;;;;;7.85;81.85;99409.91;101899;1305;75247;-25
2022/11/06 08:04:44;;;;;;;5.60;2.70;;;;;;;8.17;81.03;99405.97;101965;1301;62773;-23
2022/11/06 08:07:12;;;;;;;3.90;2.50;;;;;;;8.44;79.70;99406.43;101948;1305;61929;-24
2022/11/06 08:09:39;;;;;;;6.10;3.20;;;;;;;8.36;79.90;99404.77;101991;1297;75468;-23
2022/11/06 08:12:07;;;;;;;3.30;2.50;;;;;;;8.11;80.63;99406.54;101933;1298;76701;-20
2022/11/06 08:14:34;;;;;;;3.90;2.20;;;;;;;7.94;81.56;99411.66;101977;1302;73786;-20
2022/11/06 08:17:07;;;;;;;3.20;2.50;;;;;;;8.27;81.22;99417.59;101988;1296;63050;-20
2022/11/06 08:19:35;;;;;;;3.30;2.50;;;;;;;8.58;79.78;99413.52;101965;1300;61897;-20
2022/11/06 08:22:02;;;;;;;3.60;2.30;;;;;;;8.54;79.47;99417.94;101946;1305;73865;-21
2022/11/06 08:24:30;;;;;;;4.50;2.50;;;;;;;8.33;80.02;99418.41;101948;1302;76568;-20
2022/11/06 08:26:58;;;;;;;3.30;2.00;;;;;;;8.08;80.89;99420.40;101924;1305;74978;-20
2022/11/06 08:29:26;;;;;;;4.30;2.40;;;;;;;8.31;80.29;99423.55;101908;1305;62790;-20
2022/11/06 08:31:53;;;;;;;2.50;2.20;;;;;;;8.60;79.19;99420.32;101937;1304;61654;-21
2022/11/06 08:34:21;;;;;;;4.30;2.60;;;;;;;8.57;79.07;99426.54;101891;1305;75624;-20
2022/11/06 08:36:52;;;;;;;6.10;2.70;;;;;;;8.39;79.42;99425.29;101987;1300;77081;-21
2022/11/06 08:39:20;;;;;;;4.30;2.40;;;;;;;8.17;80.21;99424.17;101997;1296;75383;-20
2022/11/06 08:41:49;;;;;;;4.60;2.00;;;;;;;8.33;80.05;99424.10;101949;1301;63025;-21
2022/11/06 08:44:16;;;;;;;3.40;2.40;;;;;;;8.64;79.05;99426.66;101942;1302;61997;-21
2022/11/06 08:46:44;;;;;;;4.70;3.00;;;;;;;8.60;79.23;99425.16;101980;1303;75113;-21
2022/11/06 08:49:18;;;;;;;2.80;1.90;;;;;;;8.45;79.51;99430.45;101984;1305;77445;-21
2022/11/06 08:51:45;;;;;;;2.50;2.30;;;;;;;8.31;79.88;99432.92;102038;1305;73832;-21
2022/11/06 08:54:13;;;;;;;3.00;2.30;;;;;;;8.62;78.98;99428.63;101993;1289;61771;-20
2022/11/06 08:56:41;;;;;;;5.10;3.00;;;;;;;8.82;78.08;99432.89;101953;1301;62872;-21
2022/11/06 08:59:08;;;;;;;4.30;2.50;;;;;;;8.74;77.95;99429.61;102015;1296;74529;-21
2022/11/06 09:01:36;;;;;;;6.40;3.20;;;;;;;8.51;78.42;99428.67;101996;1305;76179;-22
2022/11/06 09:04:04;;;;;;;3.60;2.60;;;;;;;8.37;79.12;99436.50;101862;1305;74165;-21
2022/11/06 09:06:32;;;;;;;3.90;2.80;;;;;;;8.71;78.72;99430.33;101968;1305;62935;-22
2022/11/06 09:08:59;;;;;;;3.00;1.80;;;;;;;8.86;77.73;99433.48;101978;1302;61077;-23
2022/11/06 09:11:27;;;;;;;4.10;3.00;;;;;;;8.76;77.95;99433.59;101968;1301;74380;-22
2022/11/06 09:13:55;;;;;;;3.60;2.40;;;;;;;8.61;78.21;99428.92;101930;1304;76662;-22
2022/11/06 09:16:23;;;;;;;3.40;2.80;;;;;;;8.47;78.40;99426.84;101924;1304;75274;-23
2022/11/06 09:18:54;;;;;;;5.90;3.10;;;;;;;8.81;77.63;99428.94;101884;1300;61699;-23
2022/11/06 09:21:22;;;;;;;3.30;2.70;;;;;;;8.97;76.91;99427.49;101901;1303;61829;-22
2022/11/06 09:23:50;;;;;;;4.20;3.00;;;;;;;8.89;77.27;99427.55;101996;1306;76511;-22
2022/11/06 09:26:17;;;;;;;4.60;2.70;;;;;;;8.74;77.86;99424.03;101892;1305;76295;-22
2022/11/06 09:28:45;;;;;;;4.10;2.20;;;;;;;8.63;78.20;99424.42;101882;1302;73276;-23
2022/11/06 09:31:13;;;;;;;4.10;2.80;;;;;;;8.97;77.49;99427.30;102041;1305;61865;-23
2022/11/06 09:33:40;;;;;;;4.00;2.90;;;;;;;9.11;76.31;99427.64;102211;1298;61487;-23
2022/11/06 09:36:08;;;;;;;3.10;2.10;;;;;;;9.00;76.47;99426.61;102254;1302;76373;-22
2022/11/06 09:38:36;;;;;;;4.10;2.90;;;;;;;8.85;77.15;99427.30;102328;1302;76693;-23
2022/11/06 09:41:03;;;;;;;3.90;2.70;;;;;;;8.61;77.74;99429.41;102266;1294;75140;-23
2022/11/06 09:43:36;;;;;;;4.30;3.20;;;;;;;8.85;78.17;99428.65;102125;1299;61796;-23
2022/11/06 09:46:24;;;;;;;8.40;2.90;;;;;;;9.05;77.01;99430.59;102178;1300;62855;-23
2022/11/06 09:49:03;;;;;;;3.60;2.50;;;;;;;8.91;76.80;99432.09;102379;1298;76110;-23
2022/11/06 09:52:01;;;;;;;3.40;2.40;;;;;;;8.69;77.42;99431.51;102133;1302;77115;-24
2022/11/06 09:54:35;;;;;;;6.60;2.10;;;;;;;8.75;78.21;99430.71;102213;1302;75692;-23
2022/11/06 09:57:34;;;;;;;4.60;2.80;;;;;;;9.06;77.02;99434.89;102143;1298;62337;-23
2022/11/06 10:00:02;;;;;;;5.30;3.10;;;;;;;9.01;76.68;99434.34;101858;1305;62859;-23
2022/11/06 10:02:52;;;;;;;6.20;2.80;;;;;;;8.79;77.42;99431.88;102135;1302;76283;-23
2022/11/06 10:05:25;;;;;;;4.50;2.70;;;;;;;8.53;78.34;99427.36;102198;1299;76817;-23
2022/11/06 10:07:58;;;;;;;4.60;2.80;;;;;;;8.84;78.62;99433.41;102159;1303;75232;-23
2022/11/06 10:10:40;;;;;;;4.60;2.60;;;;;;;9.04;77.29;99431.73;102192;1298;61611;-23
2022/11/06 10:13:29;;;;;;;4.30;3.20;;;;;;;8.88;77.50;99427.40;102159;1288;62870;-23
2022/11/06 10:16:06;;;;;;;3.20;2.60;;;;;;;8.64;78.05;99426.25;101982;1295;76342;-23
2022/11/06 10:18:39;;;;;;;5.20;2.60;;;;;;;8.63;78.88;99423.05;102151;1300;75777;-23
2022/11/06 10:21:07;;;;;;;;;;;;;;;9.02;76.32;99421.43;102291;1302;75210;-24
2022/11/06 10:23:49;;;;;;;6.30;2.90;;;;;;;9.03;76.18;99424.69;102310;1299;62686;-24
2022/11/06 10:26:18;;;;;;;4.80;3.00;;;;;;;8.89;76.59;99419.77;102205;1299;62587;-24
2022/11/06 10:29:04;;;;;;;4.20;2.90;;;;;;;8.72;77.52;99414.84;102170;1295;75333;-24
2022/11/06 10:31:54;;;;;;;3.70;2.50;;;;;;;8.71;77.29;99414.20;102296;1302;76843;-24
2022/11/06 10:34:29;;;;;;;4.70;2.90;;;;;;;9.11;75.78;99410.95;102237;1302;74240;-24
2022/11/06 10:37:01;;;;;;;4.40;3.20;;;;;;;9.11;75.18;99411.83;102081;1299;61711;-24
2022/11/06 10:39:30;;;;;;;3.90;2.90;;;;;;;8.94;75.31;99405.73;102134;1299;62718;-24
2022/11/06 10:42:01;;;;;;;5.20;3.30;;;;;;;8.77;76.59;99407.77;102110;1299;75413;-24
2022/11/06 10:44:36;;;;;;;5.80;3.60;;;;;;;8.71;77.18;99404.20;102195;1299;75435;-24
2022/11/06 10:47:08;;;;;;;5.10;3.30;;;;;;;9.03;75.54;99401.45;102156;1302;75248;-24
2022/11/06 10:49:45;;;;;;;4.60;2.70;;;;;;;9.14;74.57;99399.16;102107;1302;62552;-24
2022/11/06 10:52:39;;;;;;;5.20;3.20;;;;;;;9.01;75.15;99399.86;102139;1299;61745;-24
2022/11/06 10:55:30;;;;;;;6.40;3.40;;;;;;;8.77;75.92;99399.97;102239;1289;75446;-24
2022/11/06 10:58:00;;;;;;;4.90;3.00;;;;;;;8.77;76.60;99399.26;102310;1299;75790;-24
2022/11/06 11:00:28;;;;;;;6.10;3.50;;;;;;;9.17;75.40;99396.70;102224;1293;75238;-24
2022/11/06 11:02:55;;;;;;;6.80;3.40;;;;;;;9.29;74.46;99398.31;102273;1301;62177;-24
2022/11/06 11:05:23;;;;;;;4.40;3.10;;;;;;;9.15;73.80;99396.70;102235;1301;62871;-24
2022/11/06 11:07:51;;;;;;;3.60;2.60;;;;;;;8.98;75.14;99400.80;102347;1297;75519;-24
2022/11/06 11:10:29;;;;;;;7.10;2.70;;;;;;;8.81;75.40;99399.51;102315;1302;75108;-24
2022/11/06 11:13:01;;;;;;;4.10;2.80;;;;;;;9.02;75.00;99392.70;102130;1302;74313;-24
2022/11/06 11:15:44;;;;;;;5.50;3.50;;;;;;;9.32;73.92;99393.76;102130;1303;63295;-24
2022/11/06 11:18:15;;;;;;;6.40;3.40;;;;;;;9.28;73.70;99390.22;102165;1301;62634;-24
2022/11/06 11:20:45;;;;;;;5.30;4.00;;;;;;;9.09;73.78;99386.84;102141;1295;76812;-24
2022/11/06 11:23:17;;;;;;;4.70;3.50;;;;;;;8.88;74.79;99383.62;101994;1299;76545;-26
2022/11/06 11:25:49;;;;;;;4.70;3.40;;;;;;;8.78;75.60;99385.55;102180;1301;75582;-26
2022/11/06 11:28:25;;;;;;;5.80;3.90;;;;;;;9.13;74.40;99381.40;102079;1302;62325;-26
2022/11/06 11:31:06;;;;;;;5.40;2.80;;;;;;;9.39;73.79;99380.10;102200;1298;61001;-26
2022/11/06 11:33:33;;;;;;;6.20;3.40;;;;;;;9.30;72.93;99376.05;102152;1294;76409;-26
2022/11/06 11:36:04;;;;;;;7.60;3.80;;;;;;;9.08;73.36;99374.13;102038;1299;75910;-29
2022/11/06 11:38:33;;;;;;;4.30;3.30;;;;;;;8.93;74.14;99375.83;102102;1301;75223;-25
2022/11/06 11:41:10;;;;;;;3.60;2.70;;;;;;;8.84;75.03;99371.11;102249;1300;63778;-27
2022/11/06 11:43:37;;;;;;;4.30;2.90;;;;;;;9.22;73.73;99368.27;102263;1299;62844;-24
2022/11/06 11:46:07;;;;;;;4.60;3.30;;;;;;;9.41;72.63;99376.14;102051;1301;76531;-25
2022/11/06 11:48:42;;;;;;;6.90;3.80;;;;;;;9.32;72.49;99371.72;102308;1299;75860;-24
2022/11/06 11:51:23;;;;;;;5.10;3.30;;;;;;;9.17;72.98;99376.80;102283;1300;72922;-24
2022/11/06 11:53:52;;;;;;;5.70;3.40;;;;;;;8.96;73.48;99375.30;102009;1295;61869;-24
2022/11/06 11:56:19;;;;;;;6.80;2.80;;;;;;;8.92;74.28;99375.59;102190;1293;61944;-23
2022/11/06 11:59:14;;;;;;;4.60;2.50;;;;;;;9.39;73.37;99373.84;102198;1299;76607;-24
2022/11/06 12:01:41;;;;;;;3.70;2.80;;;;;;;9.57;71.42;99380.55;102224;1299;76911;-24
2022/11/06 12:04:30;;;;;;;6.30;3.60;;;;;;;9.44;71.75;99384.41;102217;1299;74061;-24
2022/11/06 12:07:02;;;;;;;4.70;3.60;;;;;;;9.23;72.23;99374.50;102038;1301;62165;-25
2022/11/06 12:09:39;;;;;;;6.40;3.90;;;;;;;9.01;72.53;99383.55;101947;1298;61601;-24
2022/11/06 12:12:30;;;;;;;4.60;2.90;;;;;;;8.85;72.86;99380.23;102015;1302;76440;-24